• Join FlightAware (Why Join?)
  • Login
  • US Flag 
06:11PM EDT


 

Airport Tracker/Info


-or-


 

Live Flight TrackerFlight Track Log ✈ SKW5348 ✈ 07-May-2013 ✈ KSBP - KLAX

Flight Track Log - Related Links

Times and Time Zones

All times are in EDT time to prevent confusion due to time zone crossing. See the SKW5348 flight status page for this flight to view local times or setup timezone preferences in your user account.

Time Position Orientation Groundspeed Altitude Reporting Facility
EDT Latitude Longitude Course Direction KTS MPH feet Rate Location/Type
09:12AM 35.2511 -120.6683 141° Southeast 150 173 1,200  Level Los Angeles Center
09:12AM 35.2611 -120.6872 303° West 187 215 1,500 1,500 Climbing Los Angeles Center
09:13AM 35.2881 -120.7361 304° West 176 203 3,300 1,680 Climbing Los Angeles Center
09:14AM 35.2533 -120.7478 195° South 178 205 5,000 1,620 Climbing Los Angeles Center
09:15AM 35.1163 -120.4277 141° Southeast  Level Estimated
09:15AM 35.2167 -120.7083 139° Southeast 174 200 6,700  Level Los Angeles Center
09:16AM 35.0759 -120.3563 132° Southeast  Level Estimated
09:16AM 35.1808 -120.6672 137° Southeast 176 203 8,300  Level Los Angeles Center
09:17AM 35.0354 -120.2849 141° Southeast  Level Estimated
09:17AM 35.1447 -120.6164 131° Southeast 190 219 9,400  Level Los Angeles Center
09:18AM 35.1042 -120.5614 132° Southeast 210 242 10,800 1,320 Climbing Los Angeles Center
09:19AM 35.0631 -120.5044 131° Southeast 219 252 12,100 1,260 Climbing Los Angeles Center
09:20AM 35.0175 -120.4436 132° Southeast 234 269 13,400 1,320 Climbing Los Angeles Center
09:21AM 34.9706 -120.3800 132° Southeast 249 287 14,900 1,440 Climbing Los Angeles Center
09:22AM 34.9228 -120.3164 132° Southeast 253 291 16,400 1,380 Climbing Los Angeles Center
09:23AM 34.8731 -120.2519 133° Southeast 258 297 17,800 1,200 Climbing Los Angeles Center
09:24AM 34.8247 -120.1869 132° Southeast 258 297 18,900 540 Climbing Los Angeles Center
09:25AM 34.7708 -120.1164 133° Southeast 281 323 18,900  Level Los Angeles Center
09:26AM 34.7142 -120.0375 131° Southeast 287 330 18,900  Level Los Angeles Center
09:27AM 34.6614 -119.9675 132° Southeast 282 325 18,900  Level Los Angeles Center
09:28AM 34.6086 -119.8981 133° Southeast 281 323 18,900  Level Los Angeles Center
09:30AM 34.5456 -119.8164 133° Southeast 281 323 19,000  Climbing Los Angeles Center
09:31AM 34.4928 -119.7475 133° Southeast 280 322 19,000 -420 Level Los Angeles Center
09:32AM 34.4506 -119.6664 122° Southeast 284 327 18,200 -900 Descending Los Angeles Center
09:33AM 34.4081 -119.5869 123° Southeast 282 325 17,200 -1,260 Descending Los Angeles Center
09:34AM 34.3681 -119.5119 123° Southeast 270 311 15,700 -1,620 Descending Los Angeles Center
09:35AM 34.3242 -119.4306 123° Southeast 285 328 14,000 -1,620 Descending Los Angeles Center
09:36AM 34.2800 -119.3469 123° Southeast 291 335 12,400 -1,500 Descending Los Angeles Center
09:37AM 34.2378 -119.2656 122° Southeast 286 329 11,000 -720 Descending Los Angeles Center
09:38AM 34.1969 -119.1939 125° Southeast 258 297 11,000  Level Los Angeles Center
09:39AM 34.1453 -119.1050 125° Southeast 273 314 11,000  Level Los Angeles Center
09:40AM 34.1061 -119.0242 120° Southeast 278 320 11,000  Level Los Angeles Center
09:41AM 34.0828 -118.9303 107° East 291 335 11,000 -480 Level Los Angeles Center
09:42AM 34.0622 -118.8331 104° East 299 344 10,100 -540 Descending Los Angeles Center
09:43AM 34.0417 -118.7283 103° East 296 341 10,000 -180 Descending Los Angeles Center
09:44AM 34.0308 -118.6344 98° East 285 328 9,800 -480 Descending Los Angeles Center
09:45AM 34.0203 -118.5383 98° East 289 333 9,100 -960 Descending Los Angeles Center
09:46AM 34.0122 -118.4503 96° East 286 329 7,900 -1,140 Descending Los Angeles Center
09:47AM 34.0328 -118.3606 75° East 280 322 6,800 -1,440 Descending Los Angeles Center
09:48AM 34.0497 -118.2781 76° East 268 308 5,000 -1,620 Descending Los Angeles Center
09:49AM 34.0433 -118.1981 95° East 221 254 3,500 -1,020 Descending Los Angeles Center
09:50AM 33.9956 -118.1797 162° South 200 230 3,000 -300 Descending Los Angeles Center
09:51AM 33.9669 -118.2336 237° Southwest 196 226 3,000  Level Los Angeles Center